TNCC/CUR METAR and TAF weather

Enter ICAO airport designator
Station Type Date Time Source
TNCC METAR 2019/06/20 06:00 UTC NOAA

TNCC 200600Z AUTO 12014KT 9999 NCD 27/23 Q1013 NOSIG


Station Type Date Time Source
TNCC Decoded METAR 2019/06/20 06:00 UTC NOAA

Hato Airport, Curacao, Netherlands Antilles (TNCC) 12-12N 068-58W 67M
Jun 20, 2019 - 02:00 AM EDT / 2019.06.20 0600 UTC
Wind: from the ESE (120 degrees) at 16 MPH (14 KT):0
Visibility: greater than 7 mile(s):0
Temperature: 80 F (27 C)
Dew Point: 73 F (23 C)
Relative Humidity: 78%
Pressure (altimeter): 29.91 in. Hg (1013 hPa)
ob: TNCC 200600Z AUTO 12014KT 9999 NCD 27/23 Q1013 NOSIG
cycle: 6

Station Type Date Time Source
TNCC TAF 2019/06/20 06:48 UTC NOAA

TAF TNCC 200400Z 2006/2106 10012KT 9999 SCT018
TEMPO 2006/2016 BKN014 PROB30
TEMPO 2006/2012 5000 SHRA FEW012CB

Example: see airport list